KRAP/RAP METAR and TAF weather

Enter ICAO airport designator
Station Type Date Time Source
KRAP METAR 2019/04/22 23:52 UTC NOAA

KRAP 222352Z 00000KT 10SM CLR 14/02 A3021 RMK AO2 SLP232 T01390022 10167 20133 55007


Station Type Date Time Source
KRAP Decoded METAR 2019/04/22 23:52 UTC NOAA

RAPID CITY REGIONAL AIRPORT , SD, United States (KRAP) 44-03N 103-03W 965M
Apr 22, 2019 - 07:52 PM EDT / 2019.04.22 2352 UTC
Wind: Calm:0
Visibility: 10 mile(s):0
Sky conditions: clear
Temperature: 57.0 F (13.9 C)
Dew Point: 36.0 F (2.2 C)
Relative Humidity: 45%
Pressure (altimeter): 30.21 in. Hg (1023 hPa)
Pressure tendency: 0.02 inches (0.7 hPa) lower than three hours ago
ob: KRAP 222352Z 00000KT 10SM CLR 14/02 A3021 RMK AO2 SLP232 T01390022 10167 20133 55007
cycle: 0

Station Type Date Time Source
KRAP TAF 2019/04/22 18:22 UTC NOAA

TAF KRAP 221720Z 2218/2318 VRB05KT P6SM SCT050
FM230400 15008KT P6SM SCT150

Example: see airport list